Etusivu
METAR-TAF:

METAR-TAF

Lentoasemat :

Torino, Italia

Leveyspiiri: 45-05-20N, Pituuspiiri: 007-36-20E, korkeus merenpinnasta: 288 m

Tämänhetkinen sää

Tämä raportti tehtiin 11 tuntia ja 27 minuuttia sitten, kello 16.50 UTC
Tuuli 2 kn etelästä/lounaasta
Lämpötila 19°C
Kosteus 68%
Ilmanpaine 1022 hPa
Näkyvyys: 8000 m

METAR: LIMA 201650Z 21002KT 8000 NSC 19/13 Q1022

Aika: 06:17 (04:17 UTC)


TAF: puuttuu

Säähavainnot ja -ennusteet yli 4000 lentoasemalta (METAR- ja TAF-raportit).

Käytössä olevat sääasemat on merkitty karttaan keltaisilla ja punaisilla pisteillä.

Aseta hiiri pisteen päälle nähdäksesi sääaseman nimen.

Klikkaa sitten nähdäksesi säähavainnot ja -ennusteet.

Kartan vaihtaminen: klikkaa mustalla rastilla varustettuja vihreitä pisteitä, niin voit zoomata sisään; viivalla varustettua vihreää pistettä, niin voit zoomata ulos tai vihreitä nuolia, niin pääset viereisille kartoille.


METAR-TAF: